Time;durP1;ratioP1;P1;durP2;ratioP2;P2;SDS_P1;SDS_P2;PMS_P1;PMS_P2;Temp;Humidity;BMP_temperature;BMP_pressure;BME280_temperature;BME280_humidity;BME280_pressure;Samples;Min_cycle;Max_cycle;Signal;HPM_P1;HPM_P2
2022/12/27 00:00:42;;;;;;;12.32;2.25;;;5.90;99.90;;;;;;4994896;28;20111;-87
2022/12/27 00:03:10;;;;;;;7.20;2.17;;;5.90;99.90;;;;;;4994957;28;20517;-85
2022/12/27 00:05:39;;;;;;;9.13;2.05;;;7.00;99.90;;;;;;4992214;28;20050;-85
2022/12/27 00:08:07;;;;;;;10.05;2.20;;;5.70;99.90;;;;;;4998391;28;20100;-86
2022/12/27 00:10:34;;;;;;;10.63;2.45;;;6.10;99.90;;;;;;5008731;28;20049;-86
2022/12/27 00:13:02;;;;;;;11.02;2.15;;;5.90;99.90;;;;;;5011625;28;20050;-87
2022/12/27 00:15:30;;;;;;;8.13;1.85;;;5.80;99.90;;;;;;4994764;28;20109;-90
2022/12/27 00:17:59;;;;;;;11.20;1.90;;;6.00;99.90;;;;;;5011763;28;20076;-88
2022/12/27 00:20:25;;;;;;;9.43;2.15;;;4.80;99.90;;;;;;4991501;28;20594;-87
2022/12/27 00:22:51;;;;;;;6.68;2.17;;;6.00;99.90;;;;;;4992200;28;20045;-85
2022/12/27 00:25:23;;;;;;;13.40;2.03;;;5.90;99.90;;;;;;4995381;28;20046;-87
2022/12/27 00:28:07;;;;;;;6.72;2.15;;;5.80;99.90;;;;;;4993098;28;20109;-87
2022/12/27 00:30:33;;;;;;;13.90;2.10;;;6.00;99.90;;;;;;4994973;28;20714;-87
2022/12/27 00:33:03;;;;;;;10.70;2.25;;;6.10;99.90;;;;;;4994443;28;20077;-87
2022/12/27 00:35:32;;;;;;;14.43;2.55;;;5.80;99.90;;;;;;4998536;28;20046;-89
2022/12/27 00:38:11;;;;;;;;;;;;;;;;;;;;;
2022/12/27 00:40:43;;;;;;;12.52;2.38;;;6.00;99.90;;;;;;5008622;28;20129;-87
2022/12/27 00:43:09;;;;;;;10.95;1.90;;;4.40;99.90;;;;;;4993393;28;20045;-87
2022/12/27 00:45:42;;;;;;;13.52;2.25;;;4.40;99.90;;;;;;5018515;28;20064;-89
2022/12/27 00:48:14;;;;;;;22.10;2.47;;;5.90;99.90;;;;;;4999269;28;20084;-87
2022/12/27 00:50:41;;;;;;;10.13;2.10;;;7.70;99.90;;;;;;5001395;28;20556;-87
2022/12/27 00:53:08;;;;;;;10.32;2.58;;;5.90;99.90;;;;;;4996924;28;20081;-86
2022/12/27 00:55:39;;;;;;;11.80;2.55;;;5.70;99.90;;;;;;5007824;28;20066;-86
2022/12/27 00:58:07;;;;;;;10.20;2.42;;;4.70;99.90;;;;;;4997852;28;20112;-86
2022/12/27 01:00:35;;;;;;;11.77;2.63;;;5.80;99.90;;;;;;5014180;28;20137;-87
2022/12/27 01:03:19;;;;;;;9.40;2.00;;;5.80;99.90;;;;;;4997477;28;20090;-86
2022/12/27 01:05:45;;;;;;;11.43;2.30;;;5.70;99.90;;;;;;4998128;28;20137;-87
2022/12/27 01:08:18;;;;;;;7.10;1.65;;;5.90;99.90;;;;;;4999686;28;20132;-86
2022/12/27 01:10:44;;;;;;;9.05;1.75;;;6.90;99.90;;;;;;5016783;28;20046;-85
2022/12/27 01:13:11;;;;;;;8.48;1.60;;;5.80;99.90;;;;;;4992833;28;20556;-86
2022/12/27 01:15:43;;;;;;;14.48;2.75;;;5.60;99.90;;;;;;5002176;28;20132;-88
2022/12/27 01:18:09;;;;;;;6.47;1.60;;;5.50;99.90;;;;;;4997006;28;20053;-86
2022/12/27 01:20:37;;;;;;;9.48;1.95;;;5.60;99.90;;;;;;4993361;28;20054;-87
2022/12/27 01:23:02;;;;;;;12.65;2.38;;;5.60;99.90;;;;;;5014433;28;20048;-87
2022/12/27 01:25:31;;;;;;;12.85;2.33;;;5.70;99.90;;;;;;4996619;28;20072;-86
2022/12/27 01:27:57;;;;;;;9.82;2.38;;;5.70;99.90;;;;;;5017322;28;20049;-86
2022/12/27 01:30:32;;;;;;;13.07;2.28;;;5.80;99.90;;;;;;4992794;28;20069;-90
2022/12/27 01:33:03;;;;;;;14.32;2.95;;;5.60;99.90;;;;;;4998281;28;20563;-86
2022/12/27 01:35:36;;;;;;;10.02;2.20;;;5.10;99.90;;;;;;4996256;28;20073;-86
2022/12/27 01:38:11;;;;;;;10.00;2.08;;;5.60;99.90;;;;;;4997183;28;20061;-90
2022/12/27 01:40:37;;;;;;;14.82;2.83;;;5.60;99.90;;;;;;5015113;28;20357;-87
2022/12/27 01:43:12;;;;;;;14.43;2.47;;;5.80;99.90;;;;;;4996351;28;20053;-87
2022/12/27 01:45:57;;;;;;;15.40;2.50;;;5.00;99.90;;;;;;4996467;28;20053;-86
2022/12/27 01:48:28;;;;;;;12.52;2.95;;;5.90;99.90;;;;;;4997998;28;20049;-88
2022/12/27 01:51:06;;;;;;;14.63;2.75;;;4.40;99.90;;;;;;4996137;28;20049;-85
2022/12/27 01:53:40;;;;;;;13.48;2.50;;;5.60;99.90;;;;;;5012453;28;20050;-86
2022/12/27 01:56:31;;;;;;;12.88;2.20;;;5.60;99.90;;;;;;4992286;28;20050;-87
2022/12/27 01:59:02;;;;;;;7.88;2.10;;;4.50;99.90;;;;;;5012354;28;20125;-87
2022/12/27 02:01:40;;;;;;;14.10;2.33;;;5.50;99.90;;;;;;4993013;28;20057;-87
2022/12/27 02:04:19;;;;;;;8.43;1.98;;;5.70;99.90;;;;;;4996494;28;20080;-85
2022/12/27 02:06:45;;;;;;;13.10;2.67;;;4.10;99.90;;;;;;5010535;28;20048;-87
2022/12/27 02:09:23;;;;;;;14.20;2.55;;;5.70;99.90;;;;;;4994235;28;20664;-87
2022/12/27 02:11:55;;;;;;;11.57;2.40;;;5.50;99.90;;;;;;5008404;28;20103;-86
2022/12/27 02:14:36;;;;;;;9.73;2.47;;;5.60;99.90;;;;;;4997559;28;20037;-86
2022/12/27 02:17:23;;;;;;;10.20;2.50;;;5.60;99.90;;;;;;4996594;28;20220;-88
2022/12/27 02:20:08;;;;;;;12.68;3.03;;;5.50;99.90;;;;;;5001587;28;20057;-87
2022/12/27 02:25:41;;;;;;;9.40;1.95;;;4.60;99.90;;;;;;5015262;28;20058;-87
2022/12/27 02:28:31;;;;;;;10.93;2.13;;;5.50;99.90;;;;;;4997858;28;20064;-88
2022/12/27 02:31:10;;;;;;;15.52;2.30;;;5.40;99.90;;;;;;4994384;28;20053;-87
2022/12/27 02:33:50;;;;;;;14.57;2.75;;;5.50;99.90;;;;;;4991133;28;20547;-87
2022/12/27 02:36:41;;;;;;;19.42;2.85;;;5.30;99.90;;;;;;4997670;28;20133;-86
2022/12/27 02:39:14;;;;;;;14.93;2.60;;;5.60;99.90;;;;;;5013948;28;20050;-87
2022/12/27 02:53:06;;;;;;;12.80;2.38;;;5.60;99.90;;;;;;4997295;28;20069;-87
2022/12/27 02:58:48;;;;;;;11.43;2.30;;;5.60;99.90;;;;;;5013974;28;20136;-87
2022/12/27 03:04:29;;;;;;;9.27;2.25;;;5.60;99.90;;;;;;5008885;28;20045;-87
2022/12/27 03:07:30;;;;;;;8.68;2.38;;;5.50;99.90;;;;;;5013029;28;20922;-89
2022/12/27 03:16:55;;;;;;;12.75;2.92;;;5.40;99.90;;;;;;5012034;28;20049;-86
2022/12/27 03:25:28;;;;;;;15.68;3.20;;;5.50;99.90;;;;;;5008404;28;20502;-86
2022/12/27 03:34:03;;;;;;;13.50;2.33;;;5.50;99.90;;;;;;5014330;28;20053;-86
2022/12/27 03:39:26;;;;;;;13.63;2.80;;;5.50;99.90;;;;;;5009680;28;20491;-85
2022/12/27 03:44:46;;;;;;;13.30;2.83;;;5.70;99.90;;;;;;5008376;28;20049;-86
2022/12/27 03:47:16;;;;;;;13.48;2.55;;;5.90;99.90;;;;;;4976714;28;20475;-85
2022/12/27 03:49:53;;;;;;;12.88;3.00;;;5.40;99.90;;;;;;4999476;28;20476;-86
2022/12/27 03:52:24;;;;;;;16.27;2.83;;;5.30;99.90;;;;;;4989889;28;20046;-85
2022/12/27 03:54:52;;;;;;;12.80;2.55;;;5.30;99.90;;;;;;4996176;28;20045;-86
2022/12/27 03:57:21;;;;;;;17.55;2.78;;;5.30;99.90;;;;;;4996464;28;20136;-86
2022/12/27 03:59:47;;;;;;;8.35;2.40;;;5.30;99.90;;;;;;4993554;28;20107;-87
2022/12/27 04:02:13;;;;;;;14.45;2.72;;;5.40;99.90;;;;;;5009282;28;20046;-86
2022/12/27 04:04:41;;;;;;;10.60;2.25;;;5.20;99.90;;;;;;4992645;28;20042;-88
2022/12/27 04:07:12;;;;;;;10.93;2.40;;;5.30;99.90;;;;;;4995639;28;20139;-86
2022/12/27 04:37:05;;;;;;;14.57;2.60;;;5.40;99.90;;;;;;4989223;28;20269;-84
2022/12/27 04:39:31;;;;;;;12.55;3.13;;;5.40;99.90;;;;;;5000657;28;20594;-83
2022/12/27 04:56:07;;;;;;;5.18;1.75;;;4.20;99.90;;;;;;5011820;28;20041;-84
2022/12/27 04:58:33;;;;;;;7.45;1.70;;;4.40;99.90;;;;;;4996290;28;20045;-84
2022/12/27 05:03:52;;;;;;;11.80;2.50;;;5.40;99.90;;;;;;5012765;28;20419;-86
2022/12/27 05:06:20;;;;;;;10.18;2.10;;;5.10;99.90;;;;;;5012058;28;20130;-84
2022/12/27 05:14:17;;;;;;;8.65;2.08;;;5.10;99.90;;;;;;5013145;28;20053;-84
2022/12/27 05:16:48;;;;;;;13.65;2.08;;;5.20;99.90;;;;;;4980180;28;20107;-84
2022/12/27 05:19:14;;;;;;;7.97;1.95;;;5.30;99.90;;;;;;5000539;28;20079;-84
2022/12/27 05:25:33;;;;;;;9.98;2.28;;;5.10;99.90;;;;;;4982160;28;20472;-83
2022/12/27 05:27:15;;;;;;;8.38;2.00;;;4.90;99.90;;;;;;5016588;28;20046;-87
2022/12/27 05:29:44;;;;;;;8.85;1.95;;;4.90;99.90;;;;;;4998455;28;20052;-85
2022/12/27 05:32:13;;;;;;;11.27;1.92;;;4.90;99.90;;;;;;4995866;28;20491;-87
2022/12/27 05:34:39;;;;;;;11.40;2.40;;;5.10;99.90;;;;;;5015305;28;20049;-85
2022/12/27 05:37:10;;;;;;;13.10;2.10;;;5.10;99.90;;;;;;4998033;28;20046;-88
2022/12/27 05:39:41;;;;;;;15.52;2.28;;;5.60;99.90;;;;;;4995983;28;20081;-86
2022/12/27 05:42:07;;;;;;;13.45;2.60;;;5.00;99.90;;;;;;5004445;28;20049;-86
2022/12/27 05:44:35;;;;;;;7.93;2.30;;;4.20;99.90;;;;;;5011984;28;20068;-89
2022/12/27 05:47:30;;;;;;;9.38;2.15;;;5.10;99.90;;;;;;5011397;28;20046;-88
2022/12/27 05:50:04;;;;;;;9.35;2.03;;;5.00;99.90;;;;;;4996449;28;20053;-89
2022/12/27 05:52:34;;;;;;;7.32;2.00;;;5.00;99.90;;;;;;5001021;28;20073;-88
2022/12/27 05:55:00;;;;;;;8.90;1.92;;;5.10;99.90;;;;;;4984926;28;20045;-89
2022/12/27 05:57:29;;;;;;;10.38;2.05;;;4.90;99.90;;;;;;4998001;28;20049;-89
2022/12/27 06:00:04;;;;;;;9.57;2.00;;;3.60;99.90;;;;;;4998957;28;20056;-89
2022/12/27 06:02:42;;;;;;;11.40;2.53;;;5.00;99.90;;;;;;5005465;28;20054;-89
2022/12/27 06:05:11;;;;;;;6.30;2.10;;;5.00;99.90;;;;;;5000381;28;20132;-89
2022/12/27 06:07:47;;;;;;;11.95;1.98;;;5.30;99.90;;;;;;4969604;28;20436;-87
2022/12/27 06:10:16;;;;;;;;;;;5.40;99.90;;;;;;5019531;28;20053;-87
2022/12/27 06:12:42;;;;;;;13.27;2.67;;;5.20;99.90;;;;;;4993921;28;19936;-88
2022/12/27 06:15:10;;;;;;;12.48;2.40;;;5.30;99.90;;;;;;5003198;28;20038;-87
2022/12/27 06:17:44;;;;;;;11.10;2.13;;;5.00;99.90;;;;;;5000264;28;20077;-90
2022/12/27 06:20:20;;;;;;;;;;;;;;;;;;;;;
2022/12/27 06:22:47;;;;;;;10.57;2.20;;;5.10;99.90;;;;;;5013255;28;20041;-89
2022/12/27 06:25:17;;;;;;;13.73;3.13;;;5.00;99.90;;;;;;4995950;28;20408;-90
2022/12/27 06:27:45;;;;;;;16.33;2.90;;;5.10;99.90;;;;;;4965561;28;20042;-87
2022/12/27 06:30:18;;;;;;;13.18;2.30;;;5.20;99.90;;;;;;4981119;28;20088;-86
2022/12/27 06:32:44;;;;;;;14.10;2.70;;;5.10;99.90;;;;;;4994359;28;20046;-85
2022/12/27 06:35:10;;;;;;;15.10;2.72;;;5.20;99.90;;;;;;5011655;28;20050;-86
2022/12/27 06:37:35;;;;;;;10.43;2.60;;;5.00;99.90;;;;;;4999002;28;20053;-85
2022/12/27 06:40:01;;;;;;;13.90;2.42;;;4.90;99.90;;;;;;4994790;28;20144;-85
2022/12/27 06:42:29;;;;;;;13.23;2.55;;;6.00;99.90;;;;;;4996813;28;20037;-86
2022/12/27 06:44:56;;;;;;;7.78;2.20;;;5.20;99.90;;;;;;5013457;28;20471;-85
2022/12/27 06:47:25;;;;;;;11.15;2.20;;;4.90;99.90;;;;;;4975452;28;20056;-85
2022/12/27 06:49:51;;;;;;;7.15;2.45;;;4.90;99.90;;;;;;4995628;28;20060;-85
2022/12/27 06:52:17;;;;;;;12.73;2.72;;;5.20;99.90;;;;;;4993751;28;20480;-86
2022/12/27 06:54:42;;;;;;;10.77;2.08;;;4.90;99.90;;;;;;4995913;28;20128;-84
2022/12/27 06:57:10;;;;;;;17.00;2.22;;;4.90;99.90;;;;;;4992290;28;20041;-85
2022/12/27 06:59:36;;;;;;;8.57;2.05;;;6.00;99.90;;;;;;4995104;28;20496;-86
2022/12/27 07:02:02;;;;;;;9.57;2.22;;;4.90;99.90;;;;;;4997390;28;20053;-87
2022/12/27 07:04:28;;;;;;;9.18;2.15;;;3.80;99.90;;;;;;4994942;28;20128;-85
2022/12/27 07:06:56;;;;;;;18.52;2.78;;;6.10;99.90;;;;;;4967375;28;20064;-85
2022/12/27 07:09:22;;;;;;;9.07;2.10;;;5.10;99.90;;;;;;4966504;28;20472;-85
2022/12/27 07:11:52;;;;;;;9.85;2.00;;;4.70;99.90;;;;;;4996281;28;20515;-84
2022/12/27 07:14:18;;;;;;;13.05;2.30;;;5.70;99.90;;;;;;5000804;28;20049;-85
2022/12/27 07:16:44;;;;;;;10.88;2.15;;;4.50;99.90;;;;;;4982998;28;20467;-84
2022/12/27 07:19:13;;;;;;;10.85;2.08;;;5.00;99.90;;;;;;4998309;28;20385;-84
2022/12/27 07:21:39;;;;;;;8.23;1.90;;;;;;;;;;4967083;28;20045;-85
2022/12/27 07:24:05;;;;;;;14.73;2.58;;;4.60;99.90;;;;;;4993058;28;20049;-86
2022/12/27 07:26:31;;;;;;;12.20;2.13;;;4.60;99.90;;;;;;4995842;28;20052;-89
2022/12/27 07:28:59;;;;;;;16.30;2.03;;;4.60;99.90;;;;;;4978941;28;20049;-84
2022/12/27 07:31:28;;;;;;;6.63;1.92;;;4.70;99.90;;;;;;4994056;28;20042;-84
2022/12/27 07:34:04;;;;;;;15.20;1.98;;;3.90;99.90;;;;;;4997444;28;20114;-84
2022/12/27 07:36:39;;;;;;;8.52;2.08;;;4.70;99.90;;;;;;4976759;28;20050;-85
2022/12/27 07:39:06;;;;;;;11.20;1.73;;;4.60;99.90;;;;;;4993808;28;20041;-85
2022/12/27 07:41:35;;;;;;;12.88;1.52;;;;;;;;;;4994895;28;20061;-86
2022/12/27 07:44:03;;;;;;;6.88;1.70;;;4.70;99.90;;;;;;4994490;28;20045;-87
2022/12/27 07:46:29;;;;;;;7.40;1.60;;;4.60;99.90;;;;;;4989858;28;20103;-86
2022/12/27 07:49:05;;;;;;;11.07;2.30;;;4.70;99.90;;;;;;5001949;28;20046;-85
2022/12/27 07:51:32;;;;;;;9.45;1.98;;;4.80;99.90;;;;;;4997299;28;20041;-84
2022/12/27 07:53:57;;;;;;;10.27;2.10;;;4.60;99.90;;;;;;5000413;28;20513;-85
2022/12/27 07:56:26;;;;;;;11.02;2.33;;;4.60;99.90;;;;;;4993778;28;20049;-85
2022/12/27 07:58:54;;;;;;;7.28;1.92;;;4.90;99.90;;;;;;5000998;28;20140;-85
2022/12/27 08:01:22;;;;;;;7.97;1.95;;;4.60;99.90;;;;;;5012852;28;20049;-85
2022/12/27 08:03:54;;;;;;;9.75;2.03;;;4.80;99.90;;;;;;5029869;28;20074;-91
2022/12/27 08:06:38;;;;;;;7.30;1.90;;;6.20;99.90;;;;;;5000837;28;20052;-84
2022/12/27 08:09:05;;;;;;;9.85;2.13;;;4.50;99.90;;;;;;5000936;28;20411;-88
2022/12/27 08:11:32;;;;;;;12.68;2.28;;;4.70;99.90;;;;;;4998074;28;20060;-85
2022/12/27 08:14:00;;;;;;;10.95;1.80;;;5.20;99.90;;;;;;4988342;28;20076;-85
2022/12/27 08:16:29;;;;;;;13.40;2.22;;;4.50;99.90;;;;;;5015318;28;20127;-84
2022/12/27 08:18:57;;;;;;;10.20;2.10;;;4.70;99.90;;;;;;4982914;28;20053;-88
2022/12/27 08:21:23;;;;;;;9.30;2.13;;;4.70;99.90;;;;;;4994758;28;20053;-88
2022/12/27 08:23:51;;;;;;;13.00;1.90;;;5.60;99.90;;;;;;4997056;28;20061;-84
2022/12/27 08:26:17;;;;;;;5.63;1.60;;;4.90;99.90;;;;;;4994803;28;20064;-86
2022/12/27 08:28:43;;;;;;;8.23;1.77;;;4.30;99.90;;;;;;4983775;28;20049;-85
2022/12/27 08:31:10;;;;;;;9.35;1.90;;;4.60;99.90;;;;;;4983807;28;20046;-85
2022/12/27 08:33:40;;;;;;;7.90;1.60;;;4.90;99.90;;;;;;4999189;28;20041;-83
2022/12/27 08:36:08;;;;;;;13.82;2.13;;;4.70;99.90;;;;;;4998035;28;20099;-85
2022/12/27 08:38:34;;;;;;;6.57;1.50;;;4.70;99.90;;;;;;4997048;28;20058;-84
2022/12/27 08:41:02;;;;;;;13.18;1.75;;;4.70;99.90;;;;;;5009233;28;20061;-84
2022/12/27 08:43:31;;;;;;;11.25;1.85;;;3.50;99.90;;;;;;4998424;28;20498;-84
2022/12/27 08:46:02;;;;;;;13.13;2.17;;;5.10;99.90;;;;;;5014504;28;20814;-85
2022/12/27 08:48:30;;;;;;;9.93;2.08;;;5.50;99.90;;;;;;4993706;28;20107;-87
2022/12/27 08:50:58;;;;;;;9.32;1.60;;;6.00;99.90;;;;;;4992500;28;20103;-84
2022/12/27 08:53:27;;;;;;;9.32;1.70;;;6.50;99.90;;;;;;5013758;28;20072;-83
2022/12/27 08:55:55;;;;;;;6.90;1.45;;;6.60;99.90;;;;;;4997469;28;20081;-84
2022/12/27 08:58:22;;;;;;;5.28;1.52;;;6.80;99.90;;;;;;4999030;28;20103;-84
2022/12/27 09:00:48;;;;;;;7.57;1.50;;;6.80;99.90;;;;;;5012111;28;20110;-84
2022/12/27 09:03:17;;;;;;;10.68;1.98;;;6.50;99.90;;;;;;5008559;28;20039;-84
2022/12/27 09:05:51;;;;;;;7.88;1.67;;;6.40;99.90;;;;;;5003503;28;20042;-84
2022/12/27 09:08:17;;;;;;;8.20;2.00;;;6.30;99.90;;;;;;4985617;28;20511;-85
2022/12/27 09:10:45;;;;;;;9.50;1.80;;;7.10;99.90;;;;;;4994064;28;20054;-85
2022/12/27 09:13:14;;;;;;;11.95;1.85;;;5.70;99.90;;;;;;5015447;28;20049;-83
2022/12/27 09:15:41;;;;;;;11.50;1.83;;;5.50;99.90;;;;;;5016302;28;20049;-85
2022/12/27 09:18:10;;;;;;;6.72;1.40;;;5.60;99.90;;;;;;5012300;28;20054;-84
2022/12/27 09:20:46;;;;;;;8.57;1.40;;;5.40;99.90;;;;;;5017880;28;20550;-89
2022/12/27 09:23:17;;;;;;;12.50;1.90;;;5.40;99.90;;;;;;4980241;28;20095;-84
2022/12/27 09:25:43;;;;;;;7.78;1.65;;;5.50;99.90;;;;;;4981381;28;20131;-84
2022/12/27 09:28:17;;;;;;;4.40;1.60;;;5.50;99.90;;;;;;5003874;28;20507;-85
2022/12/27 09:30:43;;;;;;;6.93;1.55;;;5.40;99.90;;;;;;5001936;28;20603;-87
2022/12/27 09:33:18;;;;;;;4.68;1.35;;;5.40;99.90;;;;;;5002648;28;20499;-85
2022/12/27 09:35:44;;;;;;;10.02;1.58;;;6.50;99.90;;;;;;4970217;28;20483;-88
2022/12/27 09:38:10;;;;;;;4.50;1.80;;;5.50;99.90;;;;;;4996498;28;20053;-86
2022/12/27 09:40:40;;;;;;;7.95;1.55;;;4.80;99.90;;;;;;4998304;28;20053;-86
2022/12/27 09:43:15;;;;;;;7.03;1.65;;;6.00;99.90;;;;;;4999657;28;20081;-87
2022/12/27 09:46:14;;;;;;;8.32;2.10;;;6.10;99.90;;;;;;5020574;28;20383;-87
2022/12/27 09:48:41;;;;;;;10.50;1.70;;;6.30;99.90;;;;;;5000969;28;20050;-85
2022/12/27 09:51:24;;;;;;;10.45;1.70;;;6.30;99.90;;;;;;4996955;28;20050;-86
2022/12/27 09:53:55;;;;;;;6.22;1.42;;;5.60;99.90;;;;;;4998085;28;20057;-85
2022/12/27 09:56:32;;;;;;;6.72;1.60;;;6.80;99.90;;;;;;5009135;28;20078;-85
2022/12/27 09:59:12;;;;;;;7.32;1.83;;;6.90;99.90;;;;;;5013957;28;20060;-86
2022/12/27 10:01:41;;;;;;;10.52;1.92;;;6.90;99.90;;;;;;4993643;28;20045;-86
2022/12/27 10:04:27;;;;;;;9.90;1.58;;;7.30;99.90;;;;;;4995835;28;20520;-86
2022/12/27 10:07:19;;;;;;;;;;;7.10;99.90;;;;;;5000586;28;20132;-86
2022/12/27 10:10:11;;;;;;;10.85;1.60;;;5.80;99.90;;;;;;5017479;28;19918;-87
2022/12/27 10:13:29;;;;;;;9.25;1.90;;;7.10;99.90;;;;;;5011389;28;20045;-87
2022/12/27 10:16:14;;;;;;;6.47;1.88;;;7.00;99.90;;;;;;4970942;28;20140;-86
2022/12/27 10:19:05;;;;;;;10.18;1.95;;;6.70;99.90;;;;;;5015423;28;20050;-87
2022/12/27 10:21:39;;;;;;;8.02;1.60;;;6.60;99.90;;;;;;4996463;28;20507;-88
2022/12/27 10:25:00;;;;;;;12.10;1.90;;;6.50;99.90;;;;;;5011663;28;20033;-85
2022/12/27 10:27:31;;;;;;;8.07;1.52;;;6.40;99.90;;;;;;5011587;28;20045;-85
2022/12/27 10:30:20;;;;;;;14.85;1.90;;;4.90;99.90;;;;;;5014428;28;20094;-84
2022/12/27 10:32:46;;;;;;;7.63;1.75;;;5.50;99.90;;;;;;5013657;28;20049;-85
2022/12/27 10:35:29;;;;;;;9.10;1.90;;;5.30;99.90;;;;;;4994716;28;20066;-84
2022/12/27 10:37:58;;;;;;;11.43;2.15;;;6.70;99.90;;;;;;5012472;28;20121;-85
2022/12/27 10:40:54;;;;;;;11.32;2.35;;;6.70;99.90;;;;;;5016131;28;20054;-85
2022/12/27 10:43:31;;;;;;;9.77;1.95;;;6.80;99.90;;;;;;4994425;28;20050;-85
2022/12/27 10:46:11;;;;;;;11.18;2.22;;;7.00;99.90;;;;;;5008339;28;20054;-86
2022/12/27 10:48:51;;;;;;;7.10;1.95;;;7.60;99.90;;;;;;5010861;28;20093;-86
2022/12/27 10:51:22;;;;;;;9.07;1.92;;;8.00;99.90;;;;;;4978093;28;20061;-84
2022/12/27 10:54:12;;;;;;;9.73;1.92;;;8.50;99.90;;;;;;4990595;28;20147;-85
2022/12/27 10:56:55;;;;;;;8.30;1.75;;;8.90;99.90;;;;;;4990664;28;20038;-84
2022/12/27 10:59:36;;;;;;;;;;;;;;;;;;;;;
2022/12/27 11:02:16;;;;;;;12.85;2.10;;;8.40;99.90;;;;;;5007941;28;20064;-84
2022/12/27 11:05:01;;;;;;;5.53;1.80;;;8.10;99.90;;;;;;4994255;28;20064;-86
2022/12/27 11:07:42;;;;;;;8.20;1.80;;;8.00;99.90;;;;;;4993804;28;20042;-87
2022/12/27 11:10:18;;;;;;;7.50;1.80;;;7.90;99.90;;;;;;4991198;28;20084;-86
2022/12/27 11:13:03;;;;;;;12.30;1.88;;;7.60;99.90;;;;;;4994413;28;20046;-87
2022/12/27 11:15:56;;;;;;;7.45;1.77;;;7.70;99.90;;;;;;4991922;28;20116;-86
2022/12/27 11:18:38;;;;;;;9.95;2.20;;;6.50;99.90;;;;;;4989827;28;20077;-84
2022/12/27 11:21:05;;;;;;;10.25;2.00;;;7.30;99.90;;;;;;4993696;28;20049;-81
2022/12/27 11:23:44;;;;;;;8.73;2.00;;;7.10;99.90;;;;;;5008801;28;20046;-88
2022/12/27 11:26:43;;;;;;;8.18;2.28;;;7.10;99.90;;;;;;4988215;28;20140;-83
2022/12/27 11:29:15;;;;;;;9.57;2.88;;;7.10;99.90;;;;;;5004182;28;20116;-84
2022/12/27 11:31:49;;;;;;;12.02;2.80;;;6.90;99.90;;;;;;4998739;28;20522;-84
2022/12/27 11:34:35;;;;;;;;;;;7.00;99.90;;;;;;5024471;28;20052;-85
2022/12/27 11:37:14;;;;;;;10.70;2.47;;;7.00;99.90;;;;;;5007900;28;19975;-84
2022/12/27 11:40:07;;;;;;;11.88;2.50;;;6.70;99.90;;;;;;5011318;28;20050;-85
2022/12/27 11:42:46;;;;;;;9.65;2.10;;;6.90;99.90;;;;;;4990777;28;20637;-84
2022/12/27 11:45:21;;;;;;;11.13;2.25;;;6.90;99.90;;;;;;4995441;28;20536;-84
2022/12/27 11:48:21;;;;;;;11.45;2.60;;;5.80;99.90;;;;;;4994172;28;20049;-88
2022/12/27 11:51:17;;;;;;;6.43;2.10;;;6.90;99.90;;;;;;4985366;28;20054;-85
2022/12/27 11:54:15;;;;;;;10.55;1.70;;;6.90;99.90;;;;;;4992981;28;20061;-86
2022/12/27 11:56:52;;;;;;;9.20;1.98;;;7.00;99.90;;;;;;4988565;28;20054;-86
2022/12/27 11:59:46;;;;;;;9.07;1.88;;;6.80;99.90;;;;;;4996751;28;20076;-85
2022/12/27 12:02:26;;;;;;;8.00;1.42;;;6.90;99.90;;;;;;4991825;28;20498;-87
2022/12/27 12:05:30;;;;;;;7.97;1.70;;;6.90;99.90;;;;;;4992238;28;20046;-85
2022/12/27 12:08:14;;;;;;;5.70;1.50;;;7.00;99.90;;;;;;4983622;28;20054;-84
2022/12/27 12:11:02;;;;;;;8.15;2.03;;;7.00;99.90;;;;;;4994443;28;20058;-85
2022/12/27 12:13:48;;;;;;;10.13;2.00;;;7.00;99.90;;;;;;4999789;28;20054;-85
2022/12/27 12:16:28;;;;;;;8.93;2.00;;;7.20;99.90;;;;;;4994213;28;20104;-85
2022/12/27 12:19:11;;;;;;;10.45;1.88;;;6.00;99.90;;;;;;4992565;28;20045;-86
2022/12/27 12:21:58;;;;;;;5.88;1.90;;;7.00;99.90;;;;;;4995806;28;20042;-86
2022/12/27 12:24:36;;;;;;;7.68;1.55;;;7.00;99.90;;;;;;4994738;28;20092;-85
2022/12/27 12:27:36;;;;;;;9.35;1.85;;;7.00;99.90;;;;;;4990779;28;21512;-85
2022/12/27 12:30:32;;;;;;;12.00;1.75;;;7.00;99.90;;;;;;4991862;28;20050;-85
2022/12/27 12:33:28;;;;;;;7.13;1.52;;;7.00;99.90;;;;;;4992431;28;20052;-85
2022/12/27 12:36:13;;;;;;;6.18;1.33;;;6.80;99.90;;;;;;5010750;28;20137;-84
2022/12/27 12:38:51;;;;;;;8.65;1.35;;;7.00;99.90;;;;;;4990718;28;20054;-87
2022/12/27 12:41:43;;;;;;;8.40;1.50;;;7.00;99.90;;;;;;4994482;28;20060;-84
2022/12/27 12:44:17;;;;;;;6.55;1.55;;;7.00;99.90;;;;;;4991917;28;20041;-84
2022/12/27 12:46:49;;;;;;;7.60;1.90;;;8.00;99.90;;;;;;4998427;28;20053;-85
2022/12/27 12:49:30;;;;;;;6.60;1.83;;;7.00;99.90;;;;;;4994695;28;20042;-85
2022/12/27 12:52:06;;;;;;;5.82;1.77;;;7.10;99.90;;;;;;4996362;28;20399;-84
2022/12/27 12:54:52;;;;;;;;;;;7.00;99.90;;;;;;4993091;28;20046;-85
2022/12/27 12:57:54;;;;;;;8.93;1.35;;;7.10;99.90;;;;;;4993128;28;19979;-84
2022/12/27 13:00:32;;;;;;;7.72;2.20;;;7.10;99.90;;;;;;4998887;28;20129;-84
2022/12/27 13:02:58;;;;;;;7.85;2.28;;;7.10;99.90;;;;;;4998284;28;20037;-85
2022/12/27 13:05:48;;;;;;;8.07;1.50;;;7.10;99.90;;;;;;4997103;28;20430;-84
2022/12/27 13:08:22;;;;;;;4.50;1.50;;;7.20;99.90;;;;;;5013279;28;20103;-84
2022/12/27 13:11:00;;;;;;;7.72;1.92;;;7.10;99.90;;;;;;4994153;28;20060;-86
2022/12/27 13:13:31;;;;;;;8.45;1.83;;;7.10;99.90;;;;;;4999641;28;20042;-84
2022/12/27 13:16:08;;;;;;;8.13;2.08;;;6.90;99.90;;;;;;5006230;28;20524;-85
2022/12/27 13:19:22;;;;;;;7.90;1.98;;;7.00;99.90;;;;;;5002504;28;20133;-85
2022/12/27 13:22:29;;;;;;;6.25;2.08;;;6.90;99.90;;;;;;5021409;28;20416;-84
2022/12/27 13:25:18;;;;;;;11.73;2.50;;;6.80;99.90;;;;;;4968380;28;20431;-86
2022/12/27 13:28:15;;;;;;;10.30;2.35;;;6.80;99.90;;;;;;4996729;28;20041;-85
2022/12/27 13:31:02;;;;;;;7.78;2.42;;;6.70;99.90;;;;;;4982823;28;20483;-86
2022/12/27 13:33:34;;;;;;;8.52;2.00;;;6.80;99.90;;;;;;5006848;28;20046;-84
2022/12/27 13:36:32;;;;;;;8.73;2.60;;;6.60;99.90;;;;;;4993867;28;20049;-85
2022/12/27 13:39:31;;;;;;;9.80;2.42;;;6.60;99.90;;;;;;4999963;28;20927;-83
2022/12/27 13:42:28;;;;;;;7.57;3.28;;;6.60;99.90;;;;;;4996126;28;20046;-83
2022/12/27 13:45:34;;;;;;;8.73;2.50;;;6.60;99.90;;;;;;4998888;28;20069;-84
2022/12/27 13:48:24;;;;;;;6.90;2.60;;;6.50;99.90;;;;;;5014501;28;20157;-84
2022/12/27 13:51:08;;;;;;;9.60;2.40;;;6.60;99.90;;;;;;5011796;28;20072;-85
2022/12/27 13:54:12;;;;;;;6.70;2.75;;;6.60;99.90;;;;;;4994999;28;20050;-84
2022/12/27 13:57:15;;;;;;;10.35;2.63;;;6.60;99.90;;;;;;4919229;28;20051;-85
2022/12/27 14:00:10;;;;;;;10.10;2.90;;;5.80;99.90;;;;;;5011055;28;20403;-92
2022/12/27 14:02:51;;;;;;;10.82;2.72;;;6.50;99.90;;;;;;5021748;28;21985;-85
2022/12/27 14:06:01;;;;;;;14.82;3.15;;;6.60;99.90;;;;;;4999549;28;20046;-87
2022/12/27 14:08:48;;;;;;;7.38;2.55;;;6.50;99.90;;;;;;5018247;28;20087;-87
2022/12/27 14:11:34;;;;;;;13.52;3.53;;;6.40;99.90;;;;;;4995996;28;20065;-86
2022/12/27 14:14:02;;;;;;;8.18;2.92;;;6.30;99.90;;;;;;4996289;28;20104;-87
2022/12/27 14:17:19;;;;;;;11.20;2.97;;;6.30;99.90;;;;;;4994886;28;20537;-88
2022/12/27 14:20:10;;;;;;;6.97;2.75;;;6.30;99.90;;;;;;4965743;28;20112;-87
2022/12/27 14:23:14;;;;;;;9.45;2.85;;;5.00;99.90;;;;;;4993127;28;20508;-87
2022/12/27 14:25:43;;;;;;;8.48;3.30;;;6.20;99.90;;;;;;4997979;28;20128;-86
2022/12/27 14:29:02;;;;;;;11.63;3.33;;;6.20;99.90;;;;;;4996449;28;20049;-85
2022/12/27 14:31:49;;;;;;;8.20;3.47;;;6.20;99.90;;;;;;4993285;28;20038;-86
2022/12/27 14:34:30;;;;;;;;;;;6.20;99.90;;;;;;4995374;28;20045;-86
2022/12/27 14:37:34;;;;;;;12.35;3.58;;;6.20;99.90;;;;;;5016839;28;19925;-85
2022/12/27 14:40:30;;;;;;;9.90;3.50;;;6.20;99.90;;;;;;4994597;28;20085;-86
2022/12/27 14:43:23;;;;;;;13.35;3.58;;;6.10;99.90;;;;;;4995345;28;20125;-85
2022/12/27 14:46:18;;;;;;;8.60;3.08;;;6.40;99.90;;;;;;4993931;28;20118;-85
2022/12/27 14:49:16;;;;;;;9.13;3.83;;;6.10;99.90;;;;;;4994523;28;20376;-86
2022/12/27 14:51:54;;;;;;;6.63;3.03;;;6.10;99.90;;;;;;4998674;28;20084;-87
2022/12/27 14:54:59;;;;;;;9.98;3.67;;;6.10;99.90;;;;;;5009100;28;20104;-85
2022/12/27 14:57:50;;;;;;;11.15;4.43;;;6.10;99.90;;;;;;4982898;28;20078;-85
2022/12/27 15:00:21;;;;;;;9.07;4.45;;;6.10;99.90;;;;;;4995308;28;20079;-84
2022/12/27 15:02:50;;;;;;;11.60;4.97;;;6.10;99.90;;;;;;4997406;28;20153;-83
2022/12/27 15:05:34;;;;;;;9.55;4.90;;;6.30;99.90;;;;;;4996452;28;20045;-84
2022/12/27 15:08:21;;;;;;;9.25;5.43;;;6.00;99.90;;;;;;5012181;28;20165;-85
2022/12/27 15:11:08;;;;;;;9.63;4.70;;;6.00;99.90;;;;;;5008589;28;20088;-86
2022/12/27 15:13:57;;;;;;;14.88;5.70;;;6.70;99.90;;;;;;5015020;28;20101;-85
2022/12/27 15:16:26;;;;;;;10.73;5.70;;;6.00;99.90;;;;;;4967999;28;20061;-87
2022/12/27 15:19:07;;;;;;;11.93;5.63;;;5.80;99.90;;;;;;5012974;28;20064;-85
2022/12/27 15:21:53;;;;;;;10.43;5.88;;;5.90;99.90;;;;;;4991108;28;20106;-85
2022/12/27 15:24:41;;;;;;;15.65;6.70;;;5.80;99.90;;;;;;5007918;28;20465;-85